Startpagina
METAR-TAF:

METAR-TAF

Vliegvelden :

Béchar, Algerije

breedte: 31-37N, lengte: 002-14W, hoogte: 773 m

Actueel weer

Dit bericht is 1 uur en het 2 minuten geleden gemaakt, om 10:00 UTC
Wind 10 kt uit het oostnoordoosten
Temperatuur 26°C
Vochtigheid 23%
Druk 1016 hPa
Zicht 10 km of meer
geen wolken onder 1500 m en geen cumulonimbus

METAR: DAOR 271000Z 07010KT CAVOK 26/03 Q1016

Tijdstip: 12:02 (11:02 UTC)

Verwachting

Dit bericht is 3 uur en het 2 minuten geleden gemaakt, om 08:00 UTC
Verwachting geldig van 27 om 09 UTC tot 27 om 18 UTC
Wind 8 kt uit het zuidoosten
Zicht 10 km of meer
geen wolken onder 1500 m en geen cumulonimbus
Wijzigt naar
van 27 om 10 UTC tot 27 om 13 UTC
Wind 10 kt uit het zuidzuidwesten

TAF: DAOR 270800Z 2709/2718 14008KT CAVOK BECMG 2710/2713 20010KT

Waarnemingen en weersverwachtingen van meer dan 4000 vliegvelden (METAR en TAF).

De beschikbare stations zijn de gele en rode punten op de kaart.

Ga met uw muis naar het station om de naam te zien.

Klik dan om waarnemingen en weersverwachtingen te zien.

kaart wijzigen: klik op de groene knoppen met een zwart kruis om in te zoomen, op de groene knop met een streepje om uit te zoomen of op de groene pijlen voor aangrenzende kaarten.


METAR-TAF: